Eaton Socon, United Kingdom
Current Conditions -  °F | °C
As of 7:50 PM on Friday 28 Nov 2014 (Local Time) from EGSC Reporting Station
Clear Clear  
Wind Chill: 44°   Ceiling: Unl
Heat Index: 46°   Visibility: 4mi
Dew Point: 46°   Wind: 5mph
Humidity: 100%   Direction: 20°NNE
Pressure: 29.74"   Gusts: NA
Location:  52.22°N, 0.29°W
Report Text: EGSC 281950Z 02004KT 350V050 7000 NSC 08/08 Q1007
Loading
Personal Weather Stations






























Interactive Weather Map New forecast layout! Learn more

10-Day Weather Forecast

Advertisements
Track Severe Weather on mobile